sensor_id;sensor_type;location;lat;lon;timestamp;temperature;humidity
3912;DHT22;1971;51.778;10.330;2023-09-18T00:02:21;18.60;1.00
3912;DHT22;1971;51.778;10.330;2023-09-18T00:04:52;18.40;1.00
3912;DHT22;1971;51.778;10.330;2023-09-18T00:07:22;18.40;1.00
3912;DHT22;1971;51.778;10.330;2023-09-18T00:09:52;18.20;1.00
3912;DHT22;1971;51.778;10.330;2023-09-18T00:12:26;18.10;1.00
3912;DHT22;1971;51.778;10.330;2023-09-18T00:14:56;18.20;1.00
3912;DHT22;1971;51.778;10.330;2023-09-18T00:17:26;18.40;1.00
3912;DHT22;1971;51.778;10.330;2023-09-18T00:19:57;18.40;1.00
3912;DHT22;1971;51.778;10.330;2023-09-18T00:22:27;18.40;1.00
3912;DHT22;1971;51.778;10.330;2023-09-18T00:24:58;18.30;1.00
3912;DHT22;1971;51.778;10.330;2023-09-18T00:27:31;18.50;1.00
3912;DHT22;1971;51.778;10.330;2023-09-18T00:30:04;18.70;1.00
3912;DHT22;1971;51.778;10.330;2023-09-18T00:32:35;18.90;1.00
3912;DHT22;1971;51.778;10.330;2023-09-18T00:35:06;18.90;1.00
3912;DHT22;1971;51.778;10.330;2023-09-18T00:37:36;19.00;1.00
3912;DHT22;1971;51.778;10.330;2023-09-18T00:40:08;18.80;1.00
3912;DHT22;1971;51.778;10.330;2023-09-18T00:42:40;18.70;1.00
3912;DHT22;1971;51.778;10.330;2023-09-18T00:45:11;18.50;1.00
3912;DHT22;1971;51.778;10.330;2023-09-18T00:47:41;18.40;1.00
3912;DHT22;1971;51.778;10.330;2023-09-18T00:50:13;18.20;1.00
3912;DHT22;1971;51.778;10.330;2023-09-18T00:52:46;18.00;79.70
3912;DHT22;1971;51.778;10.330;2023-09-18T00:55:16;17.90;99.90
3912;DHT22;1971;51.778;10.330;2023-09-18T00:57:50;17.80;99.90
3912;DHT22;1971;51.778;10.330;2023-09-18T01:00:20;17.80;99.90
3912;DHT22;1971;51.778;10.330;2023-09-18T01:02:51;17.70;99.90
3912;DHT22;1971;51.778;10.330;2023-09-18T01:05:21;17.60;99.90
3912;DHT22;1971;51.778;10.330;2023-09-18T01:07:52;17.70;99.90
3912;DHT22;1971;51.778;10.330;2023-09-18T01:10:27;17.60;99.90
3912;DHT22;1971;51.778;10.330;2023-09-18T01:13:04;17.50;99.90
3912;DHT22;1971;51.778;10.330;2023-09-18T01:15:44;17.50;99.90
3912;DHT22;1971;51.778;10.330;2023-09-18T01:18:18;17.40;1.00
3912;DHT22;1971;51.778;10.330;2023-09-18T01:20:49;17.30;1.00
3912;DHT22;1971;51.778;10.330;2023-09-18T01:23:21;17.20;1.00
3912;DHT22;1971;51.778;10.330;2023-09-18T01:25:52;17.10;1.00
3912;DHT22;1971;51.778;10.330;2023-09-18T01:28:22;17.10;1.00
3912;DHT22;1971;51.778;10.330;2023-09-18T01:30:52;17.00;1.00
3912;DHT22;1971;51.778;10.330;2023-09-18T01:33:23;17.00;1.00
3912;DHT22;1971;51.778;10.330;2023-09-18T01:35:56;17.00;1.00
3912;DHT22;1971;51.778;10.330;2023-09-18T01:38:30;17.00;1.00
3912;DHT22;1971;51.778;10.330;2023-09-18T01:41:01;17.00;1.00
3912;DHT22;1971;51.778;10.330;2023-09-18T01:43:31;16.90;99.90
3912;DHT22;1971;51.778;10.330;2023-09-18T01:46:03;16.90;1.00
3912;DHT22;1971;51.778;10.330;2023-09-18T01:48:33;16.80;1.00
3912;DHT22;1971;51.778;10.330;2023-09-18T01:51:04;16.80;1.00
3912;DHT22;1971;51.778;10.330;2023-09-18T01:53:37;16.80;1.00
3912;DHT22;1971;51.778;10.330;2023-09-18T01:56:07;16.80;1.00
3912;DHT22;1971;51.778;10.330;2023-09-18T01:58:37;16.90;1.00
3912;DHT22;1971;51.778;10.330;2023-09-18T02:01:08;16.90;1.00
3912;DHT22;1971;51.778;10.330;2023-09-18T02:03:39;17.00;1.00
3912;DHT22;1971;51.778;10.330;2023-09-18T02:06:30;17.20;1.00
3912;DHT22;1971;51.778;10.330;2023-09-18T02:09:03;17.40;1.00
3912;DHT22;1971;51.778;10.330;2023-09-18T02:11:36;17.50;1.00
3912;DHT22;1971;51.778;10.330;2023-09-18T02:14:08;17.70;99.90
3912;DHT22;1971;51.778;10.330;2023-09-18T02:16:40;17.70;99.90
3912;DHT22;1971;51.778;10.330;2023-09-18T02:19:12;17.60;99.90
3912;DHT22;1971;51.778;10.330;2023-09-18T02:21:44;17.50;99.90
3912;DHT22;1971;51.778;10.330;2023-09-18T02:24:17;17.30;1.00
3912;DHT22;1971;51.778;10.330;2023-09-18T02:26:47;17.20;1.00
3912;DHT22;1971;51.778;10.330;2023-09-18T02:29:18;17.20;1.00
3912;DHT22;1971;51.778;10.330;2023-09-18T02:31:48;17.10;1.00
3912;DHT22;1971;51.778;10.330;2023-09-18T02:34:18;17.10;1.00
3912;DHT22;1971;51.778;10.330;2023-09-18T02:36:49;17.10;1.00
3912;DHT22;1971;51.778;10.330;2023-09-18T02:39:22;17.10;1.00
3912;DHT22;1971;51.778;10.330;2023-09-18T02:41:53;17.10;1.00
3912;DHT22;1971;51.778;10.330;2023-09-18T02:44:24;17.00;1.00
3912;DHT22;1971;51.778;10.330;2023-09-18T02:46:54;16.90;1.00
3912;DHT22;1971;51.778;10.330;2023-09-18T02:49:25;16.80;1.00
3912;DHT22;1971;51.778;10.330;2023-09-18T02:51:57;16.90;1.00
3912;DHT22;1971;51.778;10.330;2023-09-18T02:54:30;16.80;1.00
3912;DHT22;1971;51.778;10.330;2023-09-18T02:57:00;16.70;1.00
3912;DHT22;1971;51.778;10.330;2023-09-18T02:59:30;16.70;1.10
3912;DHT22;1971;51.778;10.330;2023-09-18T03:02:02;16.60;1.00
3912;DHT22;1971;51.778;10.330;2023-09-18T03:04:32;16.50;22.30
3912;DHT22;1971;51.778;10.330;2023-09-18T03:07:04;16.30;61.10
3912;DHT22;1971;51.778;10.330;2023-09-18T03:09:36;16.30;92.20
3912;DHT22;1971;51.778;10.330;2023-09-18T03:12:08;16.20;99.90
3912;DHT22;1971;51.778;10.330;2023-09-18T03:14:38;16.20;99.90
3912;DHT22;1971;51.778;10.330;2023-09-18T03:17:09;16.20;99.90
3912;DHT22;1971;51.778;10.330;2023-09-18T03:19:39;16.20;99.90
3912;DHT22;1971;51.778;10.330;2023-09-18T03:22:10;16.20;99.90
3912;DHT22;1971;51.778;10.330;2023-09-18T03:24:44;16.20;99.90
3912;DHT22;1971;51.778;10.330;2023-09-18T03:27:14;16.20;99.90
3912;DHT22;1971;51.778;10.330;2023-09-18T03:29:45;16.10;99.90
3912;DHT22;1971;51.778;10.330;2023-09-18T03:32:15;16.10;99.90
3912;DHT22;1971;51.778;10.330;2023-09-18T03:34:46;16.10;99.90
3912;DHT22;1971;51.778;10.330;2023-09-18T03:37:16;16.30;99.90
3912;DHT22;1971;51.778;10.330;2023-09-18T03:39:49;16.30;99.90
3912;DHT22;1971;51.778;10.330;2023-09-18T03:42:19;16.40;99.90
3912;DHT22;1971;51.778;10.330;2023-09-18T03:44:49;16.30;92.50
3912;DHT22;1971;51.778;10.330;2023-09-18T03:47:19;16.30;79.80
3912;DHT22;1971;51.778;10.330;2023-09-18T03:49:50;16.30;99.90
3912;DHT22;1971;51.778;10.330;2023-09-18T03:52:20;16.40;99.90
3912;DHT22;1971;51.778;10.330;2023-09-18T03:54:54;16.40;99.90
3912;DHT22;1971;51.778;10.330;2023-09-18T03:57:24;16.50;99.90
3912;DHT22;1971;51.778;10.330;2023-09-18T03:59:54;16.50;99.90
3912;DHT22;1971;51.778;10.330;2023-09-18T04:02:25;16.50;99.90
3912;DHT22;1971;51.778;10.330;2023-09-18T04:04:56;16.40;99.90
3912;DHT22;1971;51.778;10.330;2023-09-18T04:07:27;16.60;99.90
3912;DHT22;1971;51.778;10.330;2023-09-18T04:10:02;16.70;98.50
3912;DHT22;1971;51.778;10.330;2023-09-18T04:12:33;16.80;80.10
3912;DHT22;1971;51.778;10.330;2023-09-18T04:15:05;16.80;31.80
3912;DHT22;1971;51.778;10.330;2023-09-18T04:17:35;17.10;1.00
3912;DHT22;1971;51.778;10.330;2023-09-18T04:20:09;17.10;1.00
3912;DHT22;1971;51.778;10.330;2023-09-18T04:22:43;17.20;1.00
3912;DHT22;1971;51.778;10.330;2023-09-18T04:25:20;17.40;1.00
3912;DHT22;1971;51.778;10.330;2023-09-18T04:27:50;17.50;1.00
3912;DHT22;1971;51.778;10.330;2023-09-18T04:30:20;17.60;1.00
3912;DHT22;1971;51.778;10.330;2023-09-18T04:32:51;17.70;1.00
3912;DHT22;1971;51.778;10.330;2023-09-18T04:35:22;17.70;1.00
3912;DHT22;1971;51.778;10.330;2023-09-18T04:37:55;17.80;1.00
3912;DHT22;1971;51.778;10.330;2023-09-18T04:40:28;17.80;99.90
3912;DHT22;1971;51.778;10.330;2023-09-18T04:42:59;17.90;99.90
3912;DHT22;1971;51.778;10.330;2023-09-18T04:45:31;18.00;99.90
3912;DHT22;1971;51.778;10.330;2023-09-18T04:48:02;17.90;99.90
3912;DHT22;1971;51.778;10.330;2023-09-18T04:50:33;17.80;99.90
3912;DHT22;1971;51.778;10.330;2023-09-18T04:53:04;17.70;99.90
3912;DHT22;1971;51.778;10.330;2023-09-18T04:55:37;17.80;99.90
3912;DHT22;1971;51.778;10.330;2023-09-18T04:58:08;17.80;99.90
3912;DHT22;1971;51.778;10.330;2023-09-18T05:00:38;18.00;99.90
3912;DHT22;1971;51.778;10.330;2023-09-18T05:03:09;18.10;99.90
3912;DHT22;1971;51.778;10.330;2023-09-18T05:05:40;18.00;99.20
3912;DHT22;1971;51.778;10.330;2023-09-18T05:08:12;17.90;99.90
3912;DHT22;1971;51.778;10.330;2023-09-18T05:10:45;17.80;99.90
3912;DHT22;1971;51.778;10.330;2023-09-18T05:13:16;17.70;99.90
3912;DHT22;1971;51.778;10.330;2023-09-18T05:15:46;17.80;99.90
3912;DHT22;1971;51.778;10.330;2023-09-18T05:18:16;18.00;28.60
3912;DHT22;1971;51.778;10.330;2023-09-18T05:20:47;18.20;1.00
3912;DHT22;1971;51.778;10.330;2023-09-18T05:23:17;18.40;1.00
3912;DHT22;1971;51.778;10.330;2023-09-18T05:25:50;18.60;1.00
3912;DHT22;1971;51.778;10.330;2023-09-18T05:28:20;18.70;1.00
3912;DHT22;1971;51.778;10.330;2023-09-18T05:30:50;19.00;1.00
3912;DHT22;1971;51.778;10.330;2023-09-18T05:33:20;19.30;1.00
3912;DHT22;1971;51.778;10.330;2023-09-18T05:35:51;19.50;1.00
3912;DHT22;1971;51.778;10.330;2023-09-18T05:38:21;19.60;1.00
3912;DHT22;1971;51.778;10.330;2023-09-18T05:40:54;19.80;1.00
3912;DHT22;1971;51.778;10.330;2023-09-18T05:43:24;19.90;1.00
3912;DHT22;1971;51.778;10.330;2023-09-18T05:45:52;20.00;1.00
3912;DHT22;1971;51.778;10.330;2023-09-18T05:48:22;20.00;1.00
3912;DHT22;1971;51.778;10.330;2023-09-18T05:50:52;19.90;1.00
3912;DHT22;1971;51.778;10.330;2023-09-18T05:53:22;19.80;1.00
3912;DHT22;1971;51.778;10.330;2023-09-18T05:55:55;19.70;1.00
3912;DHT22;1971;51.778;10.330;2023-09-18T05:58:31;19.70;1.00
3912;DHT22;1971;51.778;10.330;2023-09-18T06:01:03;19.60;1.00
3912;DHT22;1971;51.778;10.330;2023-09-18T06:03:33;19.60;1.00
3912;DHT22;1971;51.778;10.330;2023-09-18T06:06:04;19.40;1.00
3912;DHT22;1971;51.778;10.330;2023-09-18T06:08:35;19.40;1.00
3912;DHT22;1971;51.778;10.330;2023-09-18T06:11:07;19.40;1.00
3912;DHT22;1971;51.778;10.330;2023-09-18T06:13:37;19.40;1.00
3912;DHT22;1971;51.778;10.330;2023-09-18T06:16:08;19.50;1.00
3912;DHT22;1971;51.778;10.330;2023-09-18T06:18:38;19.60;1.00
3912;DHT22;1971;51.778;10.330;2023-09-18T06:21:08;19.80;1.00
3912;DHT22;1971;51.778;10.330;2023-09-18T06:23:39;19.80;1.00
3912;DHT22;1971;51.778;10.330;2023-09-18T06:26:11;19.70;1.00
3912;DHT22;1971;51.778;10.330;2023-09-18T06:28:42;19.70;1.00
3912;DHT22;1971;51.778;10.330;2023-09-18T06:31:12;19.70;1.00
3912;DHT22;1971;51.778;10.330;2023-09-18T06:33:43;19.80;1.00
3912;DHT22;1971;51.778;10.330;2023-09-18T06:36:14;19.80;1.00
3912;DHT22;1971;51.778;10.330;2023-09-18T06:38:44;19.90;1.00
3912;DHT22;1971;51.778;10.330;2023-09-18T06:41:17;20.00;1.00
3912;DHT22;1971;51.778;10.330;2023-09-18T06:43:47;20.10;1.00
3912;DHT22;1971;51.778;10.330;2023-09-18T06:46:17;20.10;1.00
3912;DHT22;1971;51.778;10.330;2023-09-18T06:48:50;20.10;1.00
3912;DHT22;1971;51.778;10.330;2023-09-18T06:51:21;20.10;1.00
3912;DHT22;1971;51.778;10.330;2023-09-18T06:54:09;19.90;1.00
3912;DHT22;1971;51.778;10.330;2023-09-18T06:56:42;19.90;1.00
3912;DHT22;1971;51.778;10.330;2023-09-18T06:59:13;19.90;1.00
3912;DHT22;1971;51.778;10.330;2023-09-18T07:01:43;19.90;1.00
3912;DHT22;1971;51.778;10.330;2023-09-18T07:04:13;20.00;1.00
3912;DHT22;1971;51.778;10.330;2023-09-18T07:06:43;20.00;1.00
3912;DHT22;1971;51.778;10.330;2023-09-18T07:09:14;20.00;1.00
3912;DHT22;1971;51.778;10.330;2023-09-18T07:11:47;20.00;1.00
3912;DHT22;1971;51.778;10.330;2023-09-18T07:14:18;20.00;1.00
3912;DHT22;1971;51.778;10.330;2023-09-18T07:16:48;20.00;1.00
3912;DHT22;1971;51.778;10.330;2023-09-18T07:19:18;20.00;1.00
3912;DHT22;1971;51.778;10.330;2023-09-18T07:21:48;20.10;99.90
3912;DHT22;1971;51.778;10.330;2023-09-18T07:24:19;20.00;1.00
3912;DHT22;1971;51.778;10.330;2023-09-18T07:26:51;20.10;99.90
3912;DHT22;1971;51.778;10.330;2023-09-18T07:29:22;20.10;1.00
3912;DHT22;1971;51.778;10.330;2023-09-18T07:31:52;20.20;1.00
3912;DHT22;1971;51.778;10.330;2023-09-18T07:34:23;20.20;99.90
3912;DHT22;1971;51.778;10.330;2023-09-18T07:36:53;20.20;99.90
3912;DHT22;1971;51.778;10.330;2023-09-18T07:39:23;20.20;99.90
3912;DHT22;1971;51.778;10.330;2023-09-18T07:41:59;20.30;99.90
3912;DHT22;1971;51.778;10.330;2023-09-18T07:44:29;20.30;99.90
3912;DHT22;1971;51.778;10.330;2023-09-18T07:46:59;20.20;99.90
3912;DHT22;1971;51.778;10.330;2023-09-18T07:49:29;20.20;99.90
3912;DHT22;1971;51.778;10.330;2023-09-18T07:51:59;20.20;99.90
3912;DHT22;1971;51.778;10.330;2023-09-18T07:54:29;20.30;99.90
3912;DHT22;1971;51.778;10.330;2023-09-18T07:57:02;20.40;1.00
3912;DHT22;1971;51.778;10.330;2023-09-18T07:59:36;20.40;99.90
3912;DHT22;1971;51.778;10.330;2023-09-18T08:02:07;20.30;99.90
3912;DHT22;1971;51.778;10.330;2023-09-18T08:04:37;20.30;99.90
3912;DHT22;1971;51.778;10.330;2023-09-18T08:07:07;20.30;99.90
3912;DHT22;1971;51.778;10.330;2023-09-18T08:09:39;20.30;99.90
3912;DHT22;1971;51.778;10.330;2023-09-18T08:12:12;20.30;99.90
3912;DHT22;1971;51.778;10.330;2023-09-18T08:14:43;20.20;1.00
3912;DHT22;1971;51.778;10.330;2023-09-18T08:17:14;20.20;1.00
3912;DHT22;1971;51.778;10.330;2023-09-18T08:19:44;20.10;99.90
3912;DHT22;1971;51.778;10.330;2023-09-18T08:22:15;19.90;1.00
3912;DHT22;1971;51.778;10.330;2023-09-18T08:24:46;19.90;1.00
3912;DHT22;1971;51.778;10.330;2023-09-18T08:27:20;19.90;1.00
3912;DHT22;1971;51.778;10.330;2023-09-18T08:29:50;19.80;1.00
3912;DHT22;1971;51.778;10.330;2023-09-18T08:32:20;19.90;1.00
3912;DHT22;1971;51.778;10.330;2023-09-18T08:34:50;19.80;1.00
3912;DHT22;1971;51.778;10.330;2023-09-18T08:37:21;19.90;1.00
3912;DHT22;1971;51.778;10.330;2023-09-18T08:39:52;19.90;1.00
3912;DHT22;1971;51.778;10.330;2023-09-18T08:42:25;19.80;1.00
3912;DHT22;1971;51.778;10.330;2023-09-18T08:44:58;19.90;1.00
3912;DHT22;1971;51.778;10.330;2023-09-18T08:47:31;19.90;1.00
3912;DHT22;1971;51.778;10.330;2023-09-18T08:50:01;20.00;1.00
3912;DHT22;1971;51.778;10.330;2023-09-18T08:52:32;20.00;1.00
3912;DHT22;1971;51.778;10.330;2023-09-18T08:55:06;20.00;1.00
3912;DHT22;1971;51.778;10.330;2023-09-18T08:57:40;20.00;1.00
3912;DHT22;1971;51.778;10.330;2023-09-18T09:00:12;20.00;1.00
3912;DHT22;1971;51.778;10.330;2023-09-18T09:02:45;20.10;1.00
3912;DHT22;1971;51.778;10.330;2023-09-18T09:05:16;20.30;1.00
3912;DHT22;1971;51.778;10.330;2023-09-18T09:07:48;20.40;1.00
3912;DHT22;1971;51.778;10.330;2023-09-18T09:10:18;20.50;1.00
3912;DHT22;1971;51.778;10.330;2023-09-18T09:12:53;20.60;1.00
3912;DHT22;1971;51.778;10.330;2023-09-18T09:15:29;20.70;1.00
3912;DHT22;1971;51.778;10.330;2023-09-18T09:18:04;20.70;99.90
3912;DHT22;1971;51.778;10.330;2023-09-18T09:20:35;20.90;1.00
3912;DHT22;1971;51.778;10.330;2023-09-18T09:23:09;21.00;99.90
3912;DHT22;1971;51.778;10.330;2023-09-18T09:25:39;21.00;99.90
3912;DHT22;1971;51.778;10.330;2023-09-18T09:28:12;21.30;99.90
3912;DHT22;1971;51.778;10.330;2023-09-18T09:30:43;21.30;99.90
3912;DHT22;1971;51.778;10.330;2023-09-18T09:33:13;21.50;99.90
3912;DHT22;1971;51.778;10.330;2023-09-18T09:35:44;21.60;99.90
3912;DHT22;1971;51.778;10.330;2023-09-18T09:38:14;21.80;99.90
3912;DHT22;1971;51.778;10.330;2023-09-18T09:40:47;21.50;99.90
3912;DHT22;1971;51.778;10.330;2023-09-18T09:43:21;21.30;99.90
3912;DHT22;1971;51.778;10.330;2023-09-18T09:45:56;21.20;99.90
3912;DHT22;1971;51.778;10.330;2023-09-18T09:48:27;21.10;99.90
3912;DHT22;1971;51.778;10.330;2023-09-18T09:51:00;21.00;99.90
3912;DHT22;1971;51.778;10.330;2023-09-18T09:53:42;21.00;99.90
3912;DHT22;1971;51.778;10.330;2023-09-18T09:56:14;20.90;1.00
3912;DHT22;1971;51.778;10.330;2023-09-18T09:59:04;20.80;1.00
3912;DHT22;1971;51.778;10.330;2023-09-18T10:01:35;20.70;1.00
3912;DHT22;1971;51.778;10.330;2023-09-18T10:04:09;20.70;1.00
3912;DHT22;1971;51.778;10.330;2023-09-18T10:06:42;20.60;1.00
3912;DHT22;1971;51.778;10.330;2023-09-18T10:09:14;20.90;1.00
3912;DHT22;1971;51.778;10.330;2023-09-18T10:11:51;21.00;1.00
3912;DHT22;1971;51.778;10.330;2023-09-18T10:14:29;21.00;1.00
3912;DHT22;1971;51.778;10.330;2023-09-18T10:17:16;20.80;1.00
3912;DHT22;1971;51.778;10.330;2023-09-18T10:19:54;20.80;1.00
3912;DHT22;1971;51.778;10.330;2023-09-18T10:22:38;20.60;1.00
3912;DHT22;1971;51.778;10.330;2023-09-18T10:25:11;20.40;1.00
3912;DHT22;1971;51.778;10.330;2023-09-18T10:27:46;20.30;1.00
3912;DHT22;1971;51.778;10.330;2023-09-18T10:30:23;20.10;1.00
3912;DHT22;1971;51.778;10.330;2023-09-18T10:32:54;20.10;1.00
3912;DHT22;1971;51.778;10.330;2023-09-18T10:35:29;20.10;1.00
3912;DHT22;1971;51.778;10.330;2023-09-18T10:38:00;20.10;1.00
3912;DHT22;1971;51.778;10.330;2023-09-18T10:40:31;20.50;1.00
3912;DHT22;1971;51.778;10.330;2023-09-18T10:43:04;20.80;1.00
3912;DHT22;1971;51.778;10.330;2023-09-18T10:45:40;20.90;1.00
3912;DHT22;1971;51.778;10.330;2023-09-18T10:48:12;20.80;1.00
3912;DHT22;1971;51.778;10.330;2023-09-18T10:50:44;20.60;1.00
3912;DHT22;1971;51.778;10.330;2023-09-18T10:53:15;20.50;1.00
3912;DHT22;1971;51.778;10.330;2023-09-18T10:55:45;20.50;1.00
3912;DHT22;1971;51.778;10.330;2023-09-18T10:58:23;20.50;99.90
3912;DHT22;1971;51.778;10.330;2023-09-18T11:00:59;20.40;1.00
3912;DHT22;1971;51.778;10.330;2023-09-18T11:03:31;20.40;1.00
3912;DHT22;1971;51.778;10.330;2023-09-18T11:06:04;20.40;1.00
3912;DHT22;1971;51.778;10.330;2023-09-18T11:08:35;20.30;1.00
3912;DHT22;1971;51.778;10.330;2023-09-18T11:11:13;20.20;1.00
3912;DHT22;1971;51.778;10.330;2023-09-18T11:13:48;20.30;1.00
3912;DHT22;1971;51.778;10.330;2023-09-18T11:16:36;20.30;1.00
3912;DHT22;1971;51.778;10.330;2023-09-18T11:19:13;20.30;1.00
3912;DHT22;1971;51.778;10.330;2023-09-18T11:21:47;20.10;1.00
3912;DHT22;1971;51.778;10.330;2023-09-18T11:24:19;20.10;1.00
3912;DHT22;1971;51.778;10.330;2023-09-18T11:26:53;20.20;1.00
3912;DHT22;1971;51.778;10.330;2023-09-18T11:29:26;20.10;1.00
3912;DHT22;1971;51.778;10.330;2023-09-18T11:32:02;20.00;1.00
3912;DHT22;1971;51.778;10.330;2023-09-18T11:34:32;20.20;1.00
3912;DHT22;1971;51.778;10.330;2023-09-18T11:37:20;20.20;1.00
3912;DHT22;1971;51.778;10.330;2023-09-18T11:39:52;20.30;1.00
3912;DHT22;1971;51.778;10.330;2023-09-18T11:42:25;20.30;1.00
3912;DHT22;1971;51.778;10.330;2023-09-18T11:44:56;20.20;1.00
3912;DHT22;1971;51.778;10.330;2023-09-18T11:47:29;20.20;1.00
3912;DHT22;1971;51.778;10.330;2023-09-18T11:50:00;20.30;1.00
3912;DHT22;1971;51.778;10.330;2023-09-18T11:52:34;20.10;1.00
3912;DHT22;1971;51.778;10.330;2023-09-18T11:55:06;20.00;1.00
3912;DHT22;1971;51.778;10.330;2023-09-18T11:57:37;20.10;1.00
3912;DHT22;1971;51.778;10.330;2023-09-18T12:00:18;20.20;1.00
3912;DHT22;1971;51.778;10.330;2023-09-18T12:02:54;20.20;1.00
3912;DHT22;1971;51.778;10.330;2023-09-18T12:05:25;20.20;1.00
3912;DHT22;1971;51.778;10.330;2023-09-18T12:07:55;20.40;1.00
3912;DHT22;1971;51.778;10.330;2023-09-18T12:10:27;20.70;1.00
3912;DHT22;1971;51.778;10.330;2023-09-18T12:12:59;21.00;1.00
3912;DHT22;1971;51.778;10.330;2023-09-18T12:15:31;21.20;1.00
3912;DHT22;1971;51.778;10.330;2023-09-18T12:18:14;21.30;99.90
3912;DHT22;1971;51.778;10.330;2023-09-18T12:20:46;21.30;99.90
3912;DHT22;1971;51.778;10.330;2023-09-18T12:23:17;21.30;99.90
3912;DHT22;1971;51.778;10.330;2023-09-18T12:25:56;21.20;99.90
3912;DHT22;1971;51.778;10.330;2023-09-18T12:28:27;21.10;99.90
3912;DHT22;1971;51.778;10.330;2023-09-18T12:30:59;21.20;99.90
3912;DHT22;1971;51.778;10.330;2023-09-18T12:33:37;21.60;99.90
3912;DHT22;1971;51.778;10.330;2023-09-18T12:36:08;21.80;99.90
3912;DHT22;1971;51.778;10.330;2023-09-18T12:38:42;21.90;99.90
3912;DHT22;1971;51.778;10.330;2023-09-18T12:41:13;22.20;99.90
3912;DHT22;1971;51.778;10.330;2023-09-18T12:43:43;21.80;99.90
3912;DHT22;1971;51.778;10.330;2023-09-18T12:46:14;21.80;99.90
3912;DHT22;1971;51.778;10.330;2023-09-18T12:48:48;21.60;99.90
3912;DHT22;1971;51.778;10.330;2023-09-18T12:51:18;21.40;99.90
3912;DHT22;1971;51.778;10.330;2023-09-18T12:53:59;21.20;99.90
3912;DHT22;1971;51.778;10.330;2023-09-18T12:56:40;21.00;99.90
3912;DHT22;1971;51.778;10.330;2023-09-18T12:59:11;21.00;99.90
3912;DHT22;1971;51.778;10.330;2023-09-18T13:01:46;20.80;99.90
3912;DHT22;1971;51.778;10.330;2023-09-18T13:04:20;20.70;99.90
3912;DHT22;1971;51.778;10.330;2023-09-18T13:07:03;20.60;99.90
3912;DHT22;1971;51.778;10.330;2023-09-18T13:09:33;20.40;99.90
3912;DHT22;1971;51.778;10.330;2023-09-18T13:12:05;20.60;1.00
3912;DHT22;1971;51.778;10.330;2023-09-18T13:14:57;20.70;99.90
3912;DHT22;1971;51.778;10.330;2023-09-18T13:17:41;20.80;1.00
3912;DHT22;1971;51.778;10.330;2023-09-18T13:20:16;20.70;99.90
3912;DHT22;1971;51.778;10.330;2023-09-18T13:22:48;20.50;99.90
3912;DHT22;1971;51.778;10.330;2023-09-18T13:25:20;20.40;99.90
3912;DHT22;1971;51.778;10.330;2023-09-18T13:27:52;20.10;99.90
3912;DHT22;1971;51.778;10.330;2023-09-18T13:30:23;20.10;99.90
3912;DHT22;1971;51.778;10.330;2023-09-18T13:33:02;19.90;99.90
3912;DHT22;1971;51.778;10.330;2023-09-18T13:35:37;19.90;1.00
3912;DHT22;1971;51.778;10.330;2023-09-18T13:38:09;19.90;1.00
3912;DHT22;1971;51.778;10.330;2023-09-18T13:40:41;19.90;1.00
3912;DHT22;1971;51.778;10.330;2023-09-18T13:43:12;19.80;1.00
3912;DHT22;1971;51.778;10.330;2023-09-18T13:45:43;19.80;1.00
3912;DHT22;1971;51.778;10.330;2023-09-18T13:48:13;19.70;1.00
3912;DHT22;1971;51.778;10.330;2023-09-18T13:50:47;19.70;1.00
3912;DHT22;1971;51.778;10.330;2023-09-18T13:53:19;19.70;1.00
3912;DHT22;1971;51.778;10.330;2023-09-18T13:55:49;19.60;1.00
3912;DHT22;1971;51.778;10.330;2023-09-18T13:58:19;19.60;1.00
3912;DHT22;1971;51.778;10.330;2023-09-18T14:00:50;19.50;1.00
3912;DHT22;1971;51.778;10.330;2023-09-18T14:03:21;19.50;1.00
3912;DHT22;1971;51.778;10.330;2023-09-18T14:05:54;19.60;1.00
3912;DHT22;1971;51.778;10.330;2023-09-18T14:08:24;19.70;1.00
3912;DHT22;1971;51.778;10.330;2023-09-18T14:10:54;19.80;1.00
3912;DHT22;1971;51.778;10.330;2023-09-18T14:13:25;19.70;1.00
3912;DHT22;1971;51.778;10.330;2023-09-18T14:15:55;19.70;1.00
3912;DHT22;1971;51.778;10.330;2023-09-18T14:18:25;19.70;1.00
3912;DHT22;1971;51.778;10.330;2023-09-18T14:20:59;19.70;1.00
3912;DHT22;1971;51.778;10.330;2023-09-18T14:23:30;19.70;1.00
3912;DHT22;1971;51.778;10.330;2023-09-18T14:26:01;19.70;1.00
3912;DHT22;1971;51.778;10.330;2023-09-18T14:28:32;19.60;1.00
3912;DHT22;1971;51.778;10.330;2023-09-18T14:31:03;19.60;1.00
3912;DHT22;1971;51.778;10.330;2023-09-18T14:33:33;19.60;1.00
3912;DHT22;1971;51.778;10.330;2023-09-18T14:36:06;19.60;1.00
3912;DHT22;1971;51.778;10.330;2023-09-18T14:38:37;19.50;1.00
3912;DHT22;1971;51.778;10.330;2023-09-18T14:41:07;19.50;1.00
3912;DHT22;1971;51.778;10.330;2023-09-18T14:43:38;19.50;1.00
3912;DHT22;1971;51.778;10.330;2023-09-18T14:46:08;19.60;1.00
3912;DHT22;1971;51.778;10.330;2023-09-18T14:48:38;19.60;1.00
3912;DHT22;1971;51.778;10.330;2023-09-18T14:51:11;19.60;1.00
3912;DHT22;1971;51.778;10.330;2023-09-18T14:53:41;19.60;1.00
3912;DHT22;1971;51.778;10.330;2023-09-18T14:56:12;19.70;1.00
3912;DHT22;1971;51.778;10.330;2023-09-18T14:58:42;19.60;1.00
3912;DHT22;1971;51.778;10.330;2023-09-18T15:01:12;19.70;1.00
3912;DHT22;1971;51.778;10.330;2023-09-18T15:03:43;19.70;1.00
3912;DHT22;1971;51.778;10.330;2023-09-18T15:06:17;19.70;1.00
3912;DHT22;1971;51.778;10.330;2023-09-18T15:08:47;19.60;1.00
3912;DHT22;1971;51.778;10.330;2023-09-18T15:11:17;19.60;1.00
3912;DHT22;1971;51.778;10.330;2023-09-18T15:13:48;19.50;1.00
3912;DHT22;1971;51.778;10.330;2023-09-18T15:16:18;19.50;1.00
3912;DHT22;1971;51.778;10.330;2023-09-18T15:18:48;19.50;1.00
3912;DHT22;1971;51.778;10.330;2023-09-18T15:21:27;19.50;1.00
3912;DHT22;1971;51.778;10.330;2023-09-18T15:23:57;19.40;1.00
3912;DHT22;1971;51.778;10.330;2023-09-18T15:26:27;19.40;1.00
3912;DHT22;1971;51.778;10.330;2023-09-18T15:28:58;19.40;1.00
3912;DHT22;1971;51.778;10.330;2023-09-18T15:31:28;19.50;1.00
3912;DHT22;1971;51.778;10.330;2023-09-18T15:33:59;19.40;1.00
3912;DHT22;1971;51.778;10.330;2023-09-18T15:36:31;19.40;1.00
3912;DHT22;1971;51.778;10.330;2023-09-18T15:39:02;19.30;1.00
3912;DHT22;1971;51.778;10.330;2023-09-18T15:41:32;19.30;1.00
3912;DHT22;1971;51.778;10.330;2023-09-18T15:44:05;19.20;1.00
3912;DHT22;1971;51.778;10.330;2023-09-18T15:46:38;19.20;1.00
3912;DHT22;1971;51.778;10.330;2023-09-18T15:49:08;19.20;1.00
3912;DHT22;1971;51.778;10.330;2023-09-18T15:51:41;19.10;1.00
3912;DHT22;1971;51.778;10.330;2023-09-18T15:54:12;19.00;1.00
3912;DHT22;1971;51.778;10.330;2023-09-18T15:56:43;18.90;1.00
3912;DHT22;1971;51.778;10.330;2023-09-18T15:59:16;19.00;1.00
3912;DHT22;1971;51.778;10.330;2023-09-18T16:01:46;18.90;1.00
3912;DHT22;1971;51.778;10.330;2023-09-18T16:04:17;19.00;1.00
3912;DHT22;1971;51.778;10.330;2023-09-18T16:06:51;18.90;1.00
3912;DHT22;1971;51.778;10.330;2023-09-18T16:09:21;19.00;1.00
3912;DHT22;1971;51.778;10.330;2023-09-18T16:11:51;18.90;1.00
3912;DHT22;1971;51.778;10.330;2023-09-18T16:14:22;18.80;1.00
3912;DHT22;1971;51.778;10.330;2023-09-18T16:16:52;18.80;1.00
3912;DHT22;1971;51.778;10.330;2023-09-18T16:19:23;18.80;1.00
3912;DHT22;1971;51.778;10.330;2023-09-18T16:21:56;18.80;1.00
3912;DHT22;1971;51.778;10.330;2023-09-18T16:24:27;18.80;1.00
3912;DHT22;1971;51.778;10.330;2023-09-18T16:26:57;18.70;1.00
3912;DHT22;1971;51.778;10.330;2023-09-18T16:29:28;18.70;1.00